sensor_id;sensor_type;location;lat;lon;timestamp;P1;durP1;ratioP1;P2;durP2;ratioP2
48667;SDS011;34453;52.198;5.004;2023-05-07T00:01:56;30.85;;;25.02;;
48667;SDS011;34453;52.198;5.004;2023-05-07T00:04:22;36.58;;;26.17;;
48667;SDS011;34453;52.198;5.004;2023-05-07T00:06:48;35.13;;;26.95;;
48667;SDS011;34453;52.198;5.004;2023-05-07T00:09:13;34.60;;;25.90;;
48667;SDS011;34453;52.198;5.004;2023-05-07T00:11:39;30.88;;;24.38;;
48667;SDS011;34453;52.198;5.004;2023-05-07T00:14:04;33.92;;;25.90;;
48667;SDS011;34453;52.198;5.004;2023-05-07T00:16:30;32.92;;;27.23;;
48667;SDS011;34453;52.198;5.004;2023-05-07T00:18:55;32.58;;;23.88;;
48667;SDS011;34453;52.198;5.004;2023-05-07T00:21:21;28.58;;;24.48;;
48667;SDS011;34453;52.198;5.004;2023-05-07T00:23:46;35.72;;;25.25;;
48667;SDS011;34453;52.198;5.004;2023-05-07T00:26:12;40.80;;;24.63;;
48667;SDS011;34453;52.198;5.004;2023-05-07T00:28:37;33.13;;;24.40;;
48667;SDS011;34453;52.198;5.004;2023-05-07T00:31:03;36.83;;;23.67;;
48667;SDS011;34453;52.198;5.004;2023-05-07T00:33:28;23.52;;;19.80;;
48667;SDS011;34453;52.198;5.004;2023-05-07T00:35:53;24.60;;;19.73;;
48667;SDS011;34453;52.198;5.004;2023-05-07T00:38:19;32.10;;;23.35;;
48667;SDS011;34453;52.198;5.004;2023-05-07T00:40:45;29.45;;;23.67;;
48667;SDS011;34453;52.198;5.004;2023-05-07T00:43:10;24.20;;;21.52;;
48667;SDS011;34453;52.198;5.004;2023-05-07T00:45:37;30.10;;;23.38;;
48667;SDS011;34453;52.198;5.004;2023-05-07T00:48:03;33.78;;;23.55;;
48667;SDS011;34453;52.198;5.004;2023-05-07T00:50:29;33.70;;;23.48;;
48667;SDS011;34453;52.198;5.004;2023-05-07T00:52:56;34.75;;;24.05;;
48667;SDS011;34453;52.198;5.004;2023-05-07T00:55:22;29.35;;;21.50;;
48667;SDS011;34453;52.198;5.004;2023-05-07T00:57:49;28.23;;;21.65;;
48667;SDS011;34453;52.198;5.004;2023-05-07T01:00:16;22.13;;;19.75;;
48667;SDS011;34453;52.198;5.004;2023-05-07T01:02:43;24.50;;;20.42;;
48667;SDS011;34453;52.198;5.004;2023-05-07T01:05:09;23.08;;;20.42;;
48667;SDS011;34453;52.198;5.004;2023-05-07T01:07:37;20.45;;;18.42;;
48667;SDS011;34453;52.198;5.004;2023-05-07T01:10:05;26.65;;;20.58;;
48667;SDS011;34453;52.198;5.004;2023-05-07T01:12:32;22.42;;;18.52;;
48667;SDS011;34453;52.198;5.004;2023-05-07T01:14:59;20.23;;;18.15;;
48667;SDS011;34453;52.198;5.004;2023-05-07T01:17:25;26.23;;;19.88;;
48667;SDS011;34453;52.198;5.004;2023-05-07T01:19:50;20.55;;;18.35;;
48667;SDS011;34453;52.198;5.004;2023-05-07T01:22:22;21.25;;;16.77;;
48667;SDS011;34453;52.198;5.004;2023-05-07T01:24:53;21.40;;;17.45;;
48667;SDS011;34453;52.198;5.004;2023-05-07T01:27:21;20.38;;;17.48;;
48667;SDS011;34453;52.198;5.004;2023-05-07T01:29:46;18.17;;;16.40;;
48667;SDS011;34453;52.198;5.004;2023-05-07T01:32:11;18.33;;;16.52;;
48667;SDS011;34453;52.198;5.004;2023-05-07T01:34:39;20.08;;;17.33;;
48667;SDS011;34453;52.198;5.004;2023-05-07T01:37:05;20.45;;;17.15;;
48667;SDS011;34453;52.198;5.004;2023-05-07T01:39:31;20.17;;;17.17;;
48667;SDS011;34453;52.198;5.004;2023-05-07T01:41:57;19.27;;;15.30;;
48667;SDS011;34453;52.198;5.004;2023-05-07T01:44:24;19.20;;;17.05;;
48667;SDS011;34453;52.198;5.004;2023-05-07T01:46:51;18.55;;;15.77;;
48667;SDS011;34453;52.198;5.004;2023-05-07T01:49:16;19.33;;;15.77;;
48667;SDS011;34453;52.198;5.004;2023-05-07T01:51:42;17.10;;;15.35;;
48667;SDS011;34453;52.198;5.004;2023-05-07T01:54:08;18.20;;;15.55;;
48667;SDS011;34453;52.198;5.004;2023-05-07T01:56:34;14.80;;;13.43;;
48667;SDS011;34453;52.198;5.004;2023-05-07T01:59:00;15.63;;;14.20;;
48667;SDS011;34453;52.198;5.004;2023-05-07T02:01:27;15.40;;;13.80;;
48667;SDS011;34453;52.198;5.004;2023-05-07T02:03:52;23.17;;;13.68;;
48667;SDS011;34453;52.198;5.004;2023-05-07T02:06:18;12.23;;;10.70;;
48667;SDS011;34453;52.198;5.004;2023-05-07T02:08:44;16.70;;;12.20;;
48667;SDS011;34453;52.198;5.004;2023-05-07T02:11:10;11.55;;;10.38;;
48667;SDS011;34453;52.198;5.004;2023-05-07T02:13:35;12.40;;;10.32;;
48667;SDS011;34453;52.198;5.004;2023-05-07T02:16:01;10.50;;;8.93;;
48667;SDS011;34453;52.198;5.004;2023-05-07T02:18:27;9.90;;;9.05;;
48667;SDS011;34453;52.198;5.004;2023-05-07T02:20:53;9.73;;;8.73;;
48667;SDS011;34453;52.198;5.004;2023-05-07T02:23:18;10.40;;;9.38;;
48667;SDS011;34453;52.198;5.004;2023-05-07T02:25:43;10.05;;;8.95;;
48667;SDS011;34453;52.198;5.004;2023-05-07T02:28:09;9.98;;;9.07;;
48667;SDS011;34453;52.198;5.004;2023-05-07T02:30:35;11.30;;;9.25;;
48667;SDS011;34453;52.198;5.004;2023-05-07T02:33:02;9.70;;;8.45;;
48667;SDS011;34453;52.198;5.004;2023-05-07T02:35:27;8.40;;;7.68;;
48667;SDS011;34453;52.198;5.004;2023-05-07T02:37:52;16.08;;;7.40;;
48667;SDS011;34453;52.198;5.004;2023-05-07T02:40:18;9.18;;;7.70;;
48667;SDS011;34453;52.198;5.004;2023-05-07T02:42:43;7.18;;;6.63;;
48667;SDS011;34453;52.198;5.004;2023-05-07T02:45:09;7.82;;;7.18;;
48667;SDS011;34453;52.198;5.004;2023-05-07T02:47:35;7.28;;;6.65;;
48667;SDS011;34453;52.198;5.004;2023-05-07T02:50:00;8.73;;;7.43;;
48667;SDS011;34453;52.198;5.004;2023-05-07T02:52:26;7.32;;;6.90;;
48667;SDS011;34453;52.198;5.004;2023-05-07T02:54:51;8.25;;;7.45;;
48667;SDS011;34453;52.198;5.004;2023-05-07T02:57:17;8.90;;;7.35;;
48667;SDS011;34453;52.198;5.004;2023-05-07T02:59:42;12.43;;;7.10;;
48667;SDS011;34453;52.198;5.004;2023-05-07T03:02:08;8.20;;;7.38;;
48667;SDS011;34453;52.198;5.004;2023-05-07T03:04:34;9.07;;;8.07;;
48667;SDS011;34453;52.198;5.004;2023-05-07T03:07:00;8.73;;;6.68;;
48667;SDS011;34453;52.198;5.004;2023-05-07T03:09:25;7.45;;;6.80;;
48667;SDS011;34453;52.198;5.004;2023-05-07T03:11:51;6.85;;;6.28;;
48667;SDS011;34453;52.198;5.004;2023-05-07T03:14:16;7.95;;;7.25;;
48667;SDS011;34453;52.198;5.004;2023-05-07T03:16:42;7.47;;;6.80;;
48667;SDS011;34453;52.198;5.004;2023-05-07T03:19:07;7.28;;;6.68;;
48667;SDS011;34453;52.198;5.004;2023-05-07T03:21:33;7.43;;;6.85;;
48667;SDS011;34453;52.198;5.004;2023-05-07T03:23:59;16.27;;;8.65;;
48667;SDS011;34453;52.198;5.004;2023-05-07T03:26:25;9.02;;;8.40;;
48667;SDS011;34453;52.198;5.004;2023-05-07T03:28:50;9.30;;;8.23;;
48667;SDS011;34453;52.198;5.004;2023-05-07T03:31:16;8.35;;;7.55;;
48667;SDS011;34453;52.198;5.004;2023-05-07T03:33:54;8.90;;;7.78;;
48667;SDS011;34453;52.198;5.004;2023-05-07T03:36:22;13.85;;;8.90;;
48667;SDS011;34453;52.198;5.004;2023-05-07T03:38:48;8.90;;;8.10;;
48667;SDS011;34453;52.198;5.004;2023-05-07T03:41:14;10.05;;;9.13;;
48667;SDS011;34453;52.198;5.004;2023-05-07T03:43:40;11.77;;;8.68;;
48667;SDS011;34453;52.198;5.004;2023-05-07T03:46:05;10.95;;;9.05;;
48667;SDS011;34453;52.198;5.004;2023-05-07T03:48:31;8.93;;;8.02;;
48667;SDS011;34453;52.198;5.004;2023-05-07T03:50:59;9.38;;;8.48;;
48667;SDS011;34453;52.198;5.004;2023-05-07T03:53:24;9.30;;;8.25;;
48667;SDS011;34453;52.198;5.004;2023-05-07T03:55:50;10.57;;;9.50;;
48667;SDS011;34453;52.198;5.004;2023-05-07T03:58:16;11.32;;;9.27;;
48667;SDS011;34453;52.198;5.004;2023-05-07T04:00:41;9.38;;;8.48;;
48667;SDS011;34453;52.198;5.004;2023-05-07T04:03:07;9.45;;;8.65;;
48667;SDS011;34453;52.198;5.004;2023-05-07T04:05:32;9.30;;;8.60;;
48667;SDS011;34453;52.198;5.004;2023-05-07T04:07:58;10.05;;;9.05;;
48667;SDS011;34453;52.198;5.004;2023-05-07T04:10:24;9.82;;;9.00;;
48667;SDS011;34453;52.198;5.004;2023-05-07T04:12:50;10.40;;;9.50;;
48667;SDS011;34453;52.198;5.004;2023-05-07T04:15:15;11.70;;;9.55;;
48667;SDS011;34453;52.198;5.004;2023-05-07T04:17:41;9.52;;;8.75;;
48667;SDS011;34453;52.198;5.004;2023-05-07T04:20:08;10.07;;;9.07;;
48667;SDS011;34453;52.198;5.004;2023-05-07T04:22:35;10.07;;;9.18;;
48667;SDS011;34453;52.198;5.004;2023-05-07T04:25:01;9.70;;;8.93;;
48667;SDS011;34453;52.198;5.004;2023-05-07T04:27:27;10.20;;;9.20;;
48667;SDS011;34453;52.198;5.004;2023-05-07T04:29:54;12.15;;;10.45;;
48667;SDS011;34453;52.198;5.004;2023-05-07T04:32:21;14.00;;;10.60;;
48667;SDS011;34453;52.198;5.004;2023-05-07T04:34:47;12.50;;;11.00;;
48667;SDS011;34453;52.198;5.004;2023-05-07T04:37:12;11.93;;;11.05;;
48667;SDS011;34453;52.198;5.004;2023-05-07T04:39:37;13.27;;;11.93;;
48667;SDS011;34453;52.198;5.004;2023-05-07T04:42:03;12.43;;;11.35;;
48667;SDS011;34453;52.198;5.004;2023-05-07T04:44:28;14.85;;;12.55;;
48667;SDS011;34453;52.198;5.004;2023-05-07T04:46:56;16.38;;;14.73;;
48667;SDS011;34453;52.198;5.004;2023-05-07T04:49:21;16.63;;;14.88;;
48667;SDS011;34453;52.198;5.004;2023-05-07T04:51:47;16.15;;;14.60;;
48667;SDS011;34453;52.198;5.004;2023-05-07T04:54:12;16.83;;;14.73;;
48667;SDS011;34453;52.198;5.004;2023-05-07T04:56:38;16.30;;;14.80;;
48667;SDS011;34453;52.198;5.004;2023-05-07T04:59:03;18.15;;;16.25;;
48667;SDS011;34453;52.198;5.004;2023-05-07T05:01:28;19.20;;;16.42;;
48667;SDS011;34453;52.198;5.004;2023-05-07T05:03:54;17.55;;;15.95;;
48667;SDS011;34453;52.198;5.004;2023-05-07T05:06:19;17.38;;;15.77;;
48667;SDS011;34453;52.198;5.004;2023-05-07T05:08:45;18.42;;;15.85;;
48667;SDS011;34453;52.198;5.004;2023-05-07T05:11:10;16.63;;;15.02;;
48667;SDS011;34453;52.198;5.004;2023-05-07T05:13:36;18.65;;;16.38;;
48667;SDS011;34453;52.198;5.004;2023-05-07T05:16:01;18.40;;;16.60;;
48667;SDS011;34453;52.198;5.004;2023-05-07T05:18:27;18.70;;;16.92;;
48667;SDS011;34453;52.198;5.004;2023-05-07T05:20:52;18.65;;;16.85;;
48667;SDS011;34453;52.198;5.004;2023-05-07T05:23:17;19.85;;;16.65;;
48667;SDS011;34453;52.198;5.004;2023-05-07T05:25:43;18.65;;;16.70;;
48667;SDS011;34453;52.198;5.004;2023-05-07T05:28:09;18.95;;;16.40;;
48667;SDS011;34453;52.198;5.004;2023-05-07T05:30:34;19.58;;;17.77;;
48667;SDS011;34453;52.198;5.004;2023-05-07T05:33:00;18.63;;;16.77;;
48667;SDS011;34453;52.198;5.004;2023-05-07T05:35:25;18.42;;;16.58;;
48667;SDS011;34453;52.198;5.004;2023-05-07T05:37:51;17.95;;;16.25;;
48667;SDS011;34453;52.198;5.004;2023-05-07T05:40:16;19.45;;;17.17;;
48667;SDS011;34453;52.198;5.004;2023-05-07T05:42:42;18.77;;;16.85;;
48667;SDS011;34453;52.198;5.004;2023-05-07T05:45:08;19.35;;;16.63;;
48667;SDS011;34453;52.198;5.004;2023-05-07T05:47:33;19.23;;;17.10;;
48667;SDS011;34453;52.198;5.004;2023-05-07T05:49:59;17.88;;;16.02;;
48667;SDS011;34453;52.198;5.004;2023-05-07T05:52:24;17.30;;;15.43;;
48667;SDS011;34453;52.198;5.004;2023-05-07T05:54:50;17.00;;;15.38;;
48667;SDS011;34453;52.198;5.004;2023-05-07T05:57:15;21.80;;;14.52;;
48667;SDS011;34453;52.198;5.004;2023-05-07T05:59:41;16.13;;;14.60;;
48667;SDS011;34453;52.198;5.004;2023-05-07T06:02:06;16.90;;;15.02;;
48667;SDS011;34453;52.198;5.004;2023-05-07T06:04:32;15.43;;;13.80;;
48667;SDS011;34453;52.198;5.004;2023-05-07T06:06:57;14.55;;;13.00;;
48667;SDS011;34453;52.198;5.004;2023-05-07T06:09:23;16.70;;;13.93;;
48667;SDS011;34453;52.198;5.004;2023-05-07T06:11:48;16.05;;;13.70;;
48667;SDS011;34453;52.198;5.004;2023-05-07T06:14:14;15.30;;;13.70;;
48667;SDS011;34453;52.198;5.004;2023-05-07T06:16:40;16.60;;;14.88;;
48667;SDS011;34453;52.198;5.004;2023-05-07T06:19:05;17.58;;;15.52;;
48667;SDS011;34453;52.198;5.004;2023-05-07T06:21:30;18.85;;;14.52;;
48667;SDS011;34453;52.198;5.004;2023-05-07T06:23:56;15.80;;;14.13;;
48667;SDS011;34453;52.198;5.004;2023-05-07T06:26:22;15.68;;;14.13;;
48667;SDS011;34453;52.198;5.004;2023-05-07T06:28:47;17.42;;;14.65;;
48667;SDS011;34453;52.198;5.004;2023-05-07T06:31:17;16.48;;;14.57;;
48667;SDS011;34453;52.198;5.004;2023-05-07T06:33:46;16.58;;;14.95;;
48667;SDS011;34453;52.198;5.004;2023-05-07T06:36:13;17.63;;;14.25;;
48667;SDS011;34453;52.198;5.004;2023-05-07T06:38:38;16.73;;;14.52;;
48667;SDS011;34453;52.198;5.004;2023-05-07T06:41:05;15.52;;;13.95;;
48667;SDS011;34453;52.198;5.004;2023-05-07T06:43:31;16.52;;;14.88;;
48667;SDS011;34453;52.198;5.004;2023-05-07T06:45:56;16.13;;;14.38;;
48667;SDS011;34453;52.198;5.004;2023-05-07T06:48:22;15.05;;;13.73;;
48667;SDS011;34453;52.198;5.004;2023-05-07T06:50:47;15.32;;;13.57;;
48667;SDS011;34453;52.198;5.004;2023-05-07T06:53:12;21.90;;;14.63;;
48667;SDS011;34453;52.198;5.004;2023-05-07T06:55:38;18.20;;;13.73;;
48667;SDS011;34453;52.198;5.004;2023-05-07T06:58:03;15.18;;;13.90;;
48667;SDS011;34453;52.198;5.004;2023-05-07T07:00:29;16.38;;;13.50;;
48667;SDS011;34453;52.198;5.004;2023-05-07T07:02:55;15.25;;;13.77;;
48667;SDS011;34453;52.198;5.004;2023-05-07T07:05:21;15.57;;;13.98;;
48667;SDS011;34453;52.198;5.004;2023-05-07T07:07:47;19.65;;;15.98;;
48667;SDS011;34453;52.198;5.004;2023-05-07T07:10:21;17.20;;;15.40;;
48667;SDS011;34453;52.198;5.004;2023-05-07T07:12:47;16.48;;;14.63;;
48667;SDS011;34453;52.198;5.004;2023-05-07T07:15:13;15.43;;;13.95;;
48667;SDS011;34453;52.198;5.004;2023-05-07T07:17:39;16.73;;;14.90;;
48667;SDS011;34453;52.198;5.004;2023-05-07T07:20:04;17.40;;;15.30;;
48667;SDS011;34453;52.198;5.004;2023-05-07T07:22:30;17.05;;;15.25;;
48667;SDS011;34453;52.198;5.004;2023-05-07T07:24:56;21.00;;;15.55;;
48667;SDS011;34453;52.198;5.004;2023-05-07T07:27:21;18.58;;;15.10;;
48667;SDS011;34453;52.198;5.004;2023-05-07T07:29:46;17.08;;;15.25;;
48667;SDS011;34453;52.198;5.004;2023-05-07T07:32:12;17.30;;;15.60;;
48667;SDS011;34453;52.198;5.004;2023-05-07T07:34:37;17.73;;;14.65;;
48667;SDS011;34453;52.198;5.004;2023-05-07T07:37:03;19.75;;;16.48;;
48667;SDS011;34453;52.198;5.004;2023-05-07T07:39:33;19.40;;;15.80;;
48667;SDS011;34453;52.198;5.004;2023-05-07T07:41:59;16.48;;;14.98;;
48667;SDS011;34453;52.198;5.004;2023-05-07T07:44:25;19.13;;;16.42;;
48667;SDS011;34453;52.198;5.004;2023-05-07T07:46:51;18.55;;;16.02;;
48667;SDS011;34453;52.198;5.004;2023-05-07T07:49:16;19.60;;;16.10;;
48667;SDS011;34453;52.198;5.004;2023-05-07T07:51:42;21.52;;;15.40;;
48667;SDS011;34453;52.198;5.004;2023-05-07T07:54:11;21.15;;;16.60;;
48667;SDS011;34453;52.198;5.004;2023-05-07T07:56:36;17.67;;;15.85;;
48667;SDS011;34453;52.198;5.004;2023-05-07T07:59:02;17.27;;;15.48;;
48667;SDS011;34453;52.198;5.004;2023-05-07T08:01:29;19.02;;;15.43;;
48667;SDS011;34453;52.198;5.004;2023-05-07T08:03:55;17.17;;;15.48;;
48667;SDS011;34453;52.198;5.004;2023-05-07T08:06:22;15.95;;;14.25;;
48667;SDS011;34453;52.198;5.004;2023-05-07T08:08:48;15.85;;;14.27;;
48667;SDS011;34453;52.198;5.004;2023-05-07T08:11:14;16.85;;;15.18;;
48667;SDS011;34453;52.198;5.004;2023-05-07T08:13:39;19.40;;;14.38;;
48667;SDS011;34453;52.198;5.004;2023-05-07T08:16:05;19.65;;;15.15;;
48667;SDS011;34453;52.198;5.004;2023-05-07T08:18:30;16.35;;;14.60;;
48667;SDS011;34453;52.198;5.004;2023-05-07T08:20:56;18.70;;;15.50;;
48667;SDS011;34453;52.198;5.004;2023-05-07T08:23:21;19.33;;;15.45;;
48667;SDS011;34453;52.198;5.004;2023-05-07T08:25:48;18.85;;;15.88;;
48667;SDS011;34453;52.198;5.004;2023-05-07T08:28:14;18.13;;;16.17;;
48667;SDS011;34453;52.198;5.004;2023-05-07T08:30:40;17.77;;;15.98;;
48667;SDS011;34453;52.198;5.004;2023-05-07T08:33:06;17.73;;;16.00;;
48667;SDS011;34453;52.198;5.004;2023-05-07T08:35:33;19.05;;;15.68;;
48667;SDS011;34453;52.198;5.004;2023-05-07T08:37:58;16.23;;;14.65;;
48667;SDS011;34453;52.198;5.004;2023-05-07T08:40:25;16.80;;;14.77;;
48667;SDS011;34453;52.198;5.004;2023-05-07T08:42:52;19.08;;;17.08;;
48667;SDS011;34453;52.198;5.004;2023-05-07T08:45:19;17.38;;;15.88;;
48667;SDS011;34453;52.198;5.004;2023-05-07T08:47:52;18.23;;;16.38;;
48667;SDS011;34453;52.198;5.004;2023-05-07T08:50:23;17.27;;;15.48;;
48667;SDS011;34453;52.198;5.004;2023-05-07T08:52:49;16.73;;;15.02;;
48667;SDS011;34453;52.198;5.004;2023-05-07T08:55:15;15.20;;;13.85;;
48667;SDS011;34453;52.198;5.004;2023-05-07T08:57:42;16.67;;;14.90;;
48667;SDS011;34453;52.198;5.004;2023-05-07T09:00:07;16.23;;;14.52;;
48667;SDS011;34453;52.198;5.004;2023-05-07T09:02:36;15.20;;;13.55;;
48667;SDS011;34453;52.198;5.004;2023-05-07T09:05:02;14.30;;;12.93;;
48667;SDS011;34453;52.198;5.004;2023-05-07T09:07:29;14.48;;;12.98;;
48667;SDS011;34453;52.198;5.004;2023-05-07T09:09:55;14.88;;;11.75;;
48667;SDS011;34453;52.198;5.004;2023-05-07T09:12:22;15.10;;;12.00;;
48667;SDS011;34453;52.198;5.004;2023-05-07T09:14:48;13.90;;;12.07;;
48667;SDS011;34453;52.198;5.004;2023-05-07T09:17:17;12.60;;;11.00;;
48667;SDS011;34453;52.198;5.004;2023-05-07T09:19:45;10.50;;;9.27;;
48667;SDS011;34453;52.198;5.004;2023-05-07T09:22:11;9.85;;;8.85;;
48667;SDS011;34453;52.198;5.004;2023-05-07T09:44:02;11.02;;;9.15;;
48667;SDS011;34453;52.198;5.004;2023-05-07T09:46:29;9.65;;;8.73;;
48667;SDS011;34453;52.198;5.004;2023-05-07T09:48:59;10.50;;;9.70;;
48667;SDS011;34453;52.198;5.004;2023-05-07T09:51:30;9.65;;;8.73;;
48667;SDS011;34453;52.198;5.004;2023-05-07T09:54:04;9.70;;;8.80;;
48667;SDS011;34453;52.198;5.004;2023-05-07T09:56:31;11.18;;;10.27;;
48667;SDS011;34453;52.198;5.004;2023-05-07T09:58:59;9.68;;;8.77;;
48667;SDS011;34453;52.198;5.004;2023-05-07T10:01:25;9.73;;;9.02;;
48667;SDS011;34453;52.198;5.004;2023-05-07T10:03:52;10.68;;;9.45;;
48667;SDS011;34453;52.198;5.004;2023-05-07T10:06:19;8.93;;;8.23;;
48667;SDS011;34453;52.198;5.004;2023-05-07T10:08:45;9.98;;;9.07;;
48667;SDS011;34453;52.198;5.004;2023-05-07T10:11:11;9.20;;;8.40;;
48667;SDS011;34453;52.198;5.004;2023-05-07T10:13:37;9.50;;;8.68;;
48667;SDS011;34453;52.198;5.004;2023-05-07T10:16:03;11.88;;;9.85;;
48667;SDS011;34453;52.198;5.004;2023-05-07T10:18:32;10.82;;;9.75;;
48667;SDS011;34453;52.198;5.004;2023-05-07T10:21:08;15.57;;;10.27;;
48667;SDS011;34453;52.198;5.004;2023-05-07T10:23:40;10.98;;;9.77;;
48667;SDS011;34453;52.198;5.004;2023-05-07T10:26:09;10.50;;;9.52;;
48667;SDS011;34453;52.198;5.004;2023-05-07T10:28:37;9.55;;;8.43;;
48667;SDS011;34453;52.198;5.004;2023-05-07T10:31:25;9.27;;;8.38;;
48667;SDS011;34453;52.198;5.004;2023-05-07T10:33:59;9.35;;;8.55;;
48667;SDS011;34453;52.198;5.004;2023-05-07T10:36:31;11.48;;;8.82;;
48667;SDS011;34453;52.198;5.004;2023-05-07T10:38:59;9.25;;;8.55;;
48667;SDS011;34453;52.198;5.004;2023-05-07T10:41:25;8.90;;;8.02;;
48667;SDS011;34453;52.198;5.004;2023-05-07T10:43:50;8.77;;;7.90;;
48667;SDS011;34453;52.198;5.004;2023-05-07T10:46:17;9.35;;;7.93;;
48667;SDS011;34453;52.198;5.004;2023-05-07T10:51:29;8.05;;;6.82;;
48667;SDS011;34453;52.198;5.004;2023-05-07T10:56:37;8.43;;;7.57;;
48667;SDS011;34453;52.198;5.004;2023-05-07T11:01:57;6.78;;;6.18;;
48667;SDS011;34453;52.198;5.004;2023-05-07T11:04:24;8.15;;;6.88;;
48667;SDS011;34453;52.198;5.004;2023-05-07T11:15:01;9.95;;;7.18;;
48667;SDS011;34453;52.198;5.004;2023-05-07T11:17:30;7.45;;;6.75;;
48667;SDS011;34453;52.198;5.004;2023-05-07T11:19:59;7.18;;;5.53;;
48667;SDS011;34453;52.198;5.004;2023-05-07T11:25:01;9.65;;;5.15;;
48667;SDS011;34453;52.198;5.004;2023-05-07T11:27:30;8.50;;;4.70;;
48667;SDS011;34453;52.198;5.004;2023-05-07T11:29:57;7.13;;;4.43;;
48667;SDS011;34453;52.198;5.004;2023-05-07T11:32:23;5.22;;;4.07;;
48667;SDS011;34453;52.198;5.004;2023-05-07T11:34:53;6.88;;;5.32;;
48667;SDS011;34453;52.198;5.004;2023-05-07T11:37:19;6.65;;;3.65;;
48667;SDS011;34453;52.198;5.004;2023-05-07T11:39:46;5.88;;;4.03;;
48667;SDS011;34453;52.198;5.004;2023-05-07T11:42:30;5.72;;;3.83;;
48667;SDS011;34453;52.198;5.004;2023-05-07T11:44:58;4.85;;;3.03;;
48667;SDS011;34453;52.198;5.004;2023-05-07T11:47:24;5.93;;;3.42;;
48667;SDS011;34453;52.198;5.004;2023-05-07T11:49:51;3.85;;;3.08;;
48667;SDS011;34453;52.198;5.004;2023-05-07T11:52:19;9.30;;;3.92;;
48667;SDS011;34453;52.198;5.004;2023-05-07T11:54:52;8.93;;;3.55;;
48667;SDS011;34453;52.198;5.004;2023-05-07T11:57:21;4.03;;;2.65;;
48667;SDS011;34453;52.198;5.004;2023-05-07T11:59:47;2.90;;;2.67;;
48667;SDS011;34453;52.198;5.004;2023-05-07T12:02:13;4.65;;;3.10;;
48667;SDS011;34453;52.198;5.004;2023-05-07T12:04:40;5.32;;;3.30;;
48667;SDS011;34453;52.198;5.004;2023-05-07T12:07:14;5.70;;;3.15;;
48667;SDS011;34453;52.198;5.004;2023-05-07T12:09:43;7.68;;;3.33;;
48667;SDS011;34453;52.198;5.004;2023-05-07T12:12:10;7.80;;;2.83;;
48667;SDS011;34453;52.198;5.004;2023-05-07T12:14:40;4.53;;;2.65;;
48667;SDS011;34453;52.198;5.004;2023-05-07T12:17:09;5.97;;;3.08;;
48667;SDS011;34453;52.198;5.004;2023-05-07T12:19:36;4.70;;;2.97;;
48667;SDS011;34453;52.198;5.004;2023-05-07T12:22:03;4.80;;;3.42;;
48667;SDS011;34453;52.198;5.004;2023-05-07T12:24:56;6.07;;;2.80;;
48667;SDS011;34453;52.198;5.004;2023-05-07T12:29:47;5.03;;;3.22;;
48667;SDS011;34453;52.198;5.004;2023-05-07T12:32:15;6.35;;;3.80;;
48667;SDS011;34453;52.198;5.004;2023-05-07T12:34:42;3.38;;;3.13;;
48667;SDS011;34453;52.198;5.004;2023-05-07T12:37:08;4.70;;;3.17;;
48667;SDS011;34453;52.198;5.004;2023-05-07T12:39:35;4.53;;;3.13;;
48667;SDS011;34453;52.198;5.004;2023-05-07T12:42:00;4.20;;;2.78;;
48667;SDS011;34453;52.198;5.004;2023-05-07T12:44:29;4.68;;;3.15;;
48667;SDS011;34453;52.198;5.004;2023-05-07T12:47:02;4.63;;;2.67;;
48667;SDS011;34453;52.198;5.004;2023-05-07T12:49:28;8.60;;;3.47;;
48667;SDS011;34453;52.198;5.004;2023-05-07T12:51:53;4.95;;;2.50;;
48667;SDS011;34453;52.198;5.004;2023-05-07T12:54:37;7.95;;;3.13;;
48667;SDS011;34453;52.198;5.004;2023-05-07T12:57:07;6.47;;;2.67;;
48667;SDS011;34453;52.198;5.004;2023-05-07T12:59:34;3.80;;;2.70;;
48667;SDS011;34453;52.198;5.004;2023-05-07T13:02:01;9.10;;;3.88;;
48667;SDS011;34453;52.198;5.004;2023-05-07T13:04:27;8.57;;;3.78;;
48667;SDS011;34453;52.198;5.004;2023-05-07T13:06:52;2.58;;;2.38;;
48667;SDS011;34453;52.198;5.004;2023-05-07T13:09:18;4.97;;;2.30;;
48667;SDS011;34453;52.198;5.004;2023-05-07T13:11:43;6.18;;;2.60;;
48667;SDS011;34453;52.198;5.004;2023-05-07T13:14:10;5.45;;;2.78;;
48667;SDS011;34453;52.198;5.004;2023-05-07T13:16:35;4.38;;;2.53;;
48667;SDS011;34453;52.198;5.004;2023-05-07T13:19:00;5.65;;;2.28;;
48667;SDS011;34453;52.198;5.004;2023-05-07T13:21:26;2.53;;;2.17;;
48667;SDS011;34453;52.198;5.004;2023-05-07T13:23:51;3.30;;;2.60;;
48667;SDS011;34453;52.198;5.004;2023-05-07T13:26:17;4.65;;;2.55;;
48667;SDS011;34453;52.198;5.004;2023-05-07T13:28:43;5.47;;;2.00;;
48667;SDS011;34453;52.198;5.004;2023-05-07T13:31:08;7.00;;;3.13;;
48667;SDS011;34453;52.198;5.004;2023-05-07T13:33:34;4.00;;;1.85;;
48667;SDS011;34453;52.198;5.004;2023-05-07T13:36:00;5.07;;;2.78;;
48667;SDS011;34453;52.198;5.004;2023-05-07T13:38:26;4.63;;;2.13;;
48667;SDS011;34453;52.198;5.004;2023-05-07T13:40:51;4.40;;;2.70;;
48667;SDS011;34453;52.198;5.004;2023-05-07T13:43:17;11.25;;;2.85;;
48667;SDS011;34453;52.198;5.004;2023-05-07T13:45:43;3.55;;;2.17;;
48667;SDS011;34453;52.198;5.004;2023-05-07T13:48:09;4.70;;;2.33;;
48667;SDS011;34453;52.198;5.004;2023-05-07T13:50:35;7.68;;;2.45;;
48667;SDS011;34453;52.198;5.004;2023-05-07T13:53:00;7.03;;;2.42;;
48667;SDS011;34453;52.198;5.004;2023-05-07T13:55:27;7.20;;;2.92;;
48667;SDS011;34453;52.198;5.004;2023-05-07T13:57:54;5.03;;;2.65;;
48667;SDS011;34453;52.198;5.004;2023-05-07T14:00:25;3.35;;;2.20;;
48667;SDS011;34453;52.198;5.004;2023-05-07T14:02:52;5.05;;;2.80;;
48667;SDS011;34453;52.198;5.004;2023-05-07T14:05:18;3.30;;;2.42;;
48667;SDS011;34453;52.198;5.004;2023-05-07T14:07:43;4.50;;;2.17;;
48667;SDS011;34453;52.198;5.004;2023-05-07T14:10:09;14.57;;;3.67;;
48667;SDS011;34453;52.198;5.004;2023-05-07T14:12:36;3.92;;;2.78;;
48667;SDS011;34453;52.198;5.004;2023-05-07T14:15:02;6.35;;;4.38;;
48667;SDS011;34453;52.198;5.004;2023-05-07T14:17:29;6.60;;;5.78;;
48667;SDS011;34453;52.198;5.004;2023-05-07T14:19:55;17.17;;;8.98;;
48667;SDS011;34453;52.198;5.004;2023-05-07T14:22:22;17.48;;;13.20;;
48667;SDS011;34453;52.198;5.004;2023-05-07T14:24:48;19.42;;;12.73;;
48667;SDS011;34453;52.198;5.004;2023-05-07T14:27:15;15.13;;;9.10;;
48667;SDS011;34453;52.198;5.004;2023-05-07T14:29:40;21.35;;;6.25;;
48667;SDS011;34453;52.198;5.004;2023-05-07T14:32:06;11.20;;;4.57;;
48667;SDS011;34453;52.198;5.004;2023-05-07T14:34:31;6.43;;;1.73;;
48667;SDS011;34453;52.198;5.004;2023-05-07T14:36:57;8.57;;;2.45;;
48667;SDS011;34453;52.198;5.004;2023-05-07T14:39:23;11.20;;;3.70;;
48667;SDS011;34453;52.198;5.004;2023-05-07T14:41:49;13.32;;;5.82;;
48667;SDS011;34453;52.198;5.004;2023-05-07T14:44:14;12.05;;;5.47;;
48667;SDS011;34453;52.198;5.004;2023-05-07T14:46:40;24.65;;;8.75;;
48667;SDS011;34453;52.198;5.004;2023-05-07T14:49:05;15.25;;;8.23;;
48667;SDS011;34453;52.198;5.004;2023-05-07T14:51:31;15.27;;;7.00;;
48667;SDS011;34453;52.198;5.004;2023-05-07T14:53:58;9.52;;;6.25;;
48667;SDS011;34453;52.198;5.004;2023-05-07T14:56:23;7.20;;;5.15;;
48667;SDS011;34453;52.198;5.004;2023-05-07T14:58:48;7.22;;;4.35;;
48667;SDS011;34453;52.198;5.004;2023-05-07T15:01:14;5.10;;;3.75;;
48667;SDS011;34453;52.198;5.004;2023-05-07T15:03:40;5.18;;;4.22;;
48667;SDS011;34453;52.198;5.004;2023-05-07T15:06:05;5.30;;;4.45;;
48667;SDS011;34453;52.198;5.004;2023-05-07T15:08:31;8.57;;;5.32;;
48667;SDS011;34453;52.198;5.004;2023-05-07T15:10:56;8.15;;;5.47;;